Terminal Aerodrome Forecast
Issued by NWS

Home | Current Version | Previous Version | Text Only | Print | Product List | Glossary On
Versions: 1 2 3 4 5 6 7 8 9 10 11 12 13
000
FTUS42 TJSJ 311100
TAFJSJ
TAF
TJSJ 311135Z 3112/0112 09002KT P6SM VCSH FEW025 SCT040
     FM311400 07012KT P6SM SCT030
     FM311800 06015G22KT P6SM VCTS SCT025 BKN040CB
     FM312200 10006KT P6SM FEW030=

USA.gov is the U.S. government's official web portal to all federal, state and local government web resources and services.